sensor_id;sensor_type;location;lat;lon;timestamp;temperature;humidity
43338;DHT22;28933;52.492;13.434;2023-08-12T00:01:04;20.00;97.10
43338;DHT22;28933;52.492;13.434;2023-08-12T00:03:51;20.10;97.20
43338;DHT22;28933;52.492;13.434;2023-08-12T00:06:37;20.00;97.30
43338;DHT22;28933;52.492;13.434;2023-08-12T00:09:23;20.00;97.30
43338;DHT22;28933;52.492;13.434;2023-08-12T00:12:09;20.00;97.40
43338;DHT22;28933;52.492;13.434;2023-08-12T00:14:55;20.00;97.50
43338;DHT22;28933;52.492;13.434;2023-08-12T00:17:42;20.00;97.60
43338;DHT22;28933;52.492;13.434;2023-08-12T00:20:28;20.00;97.60
43338;DHT22;28933;52.492;13.434;2023-08-12T00:23:14;19.90;97.70
43338;DHT22;28933;52.492;13.434;2023-08-12T00:26:00;19.90;97.80
43338;DHT22;28933;52.492;13.434;2023-08-12T00:28:48;19.80;97.90
43338;DHT22;28933;52.492;13.434;2023-08-12T00:31:34;19.80;98.00
43338;DHT22;28933;52.492;13.434;2023-08-12T00:34:20;19.80;98.10
43338;DHT22;28933;52.492;13.434;2023-08-12T00:37:06;19.80;98.10
43338;DHT22;28933;52.492;13.434;2023-08-12T00:39:52;19.80;98.20
43338;DHT22;28933;52.492;13.434;2023-08-12T00:42:38;19.80;98.30
43338;DHT22;28933;52.492;13.434;2023-08-12T00:45:24;19.80;98.40
43338;DHT22;28933;52.492;13.434;2023-08-12T00:48:10;19.80;98.40
43338;DHT22;28933;52.492;13.434;2023-08-12T00:50:56;19.70;98.40
43338;DHT22;28933;52.492;13.434;2023-08-12T00:53:43;19.70;98.50
43338;DHT22;28933;52.492;13.434;2023-08-12T00:56:31;19.70;98.50
43338;DHT22;28933;52.492;13.434;2023-08-12T00:59:18;19.70;98.70
43338;DHT22;28933;52.492;13.434;2023-08-12T01:02:05;19.70;98.80
43338;DHT22;28933;52.492;13.434;2023-08-12T01:04:51;19.70;98.80
43338;DHT22;28933;52.492;13.434;2023-08-12T01:07:37;19.70;99.00
43338;DHT22;28933;52.492;13.434;2023-08-12T01:10:25;19.60;98.80
43338;DHT22;28933;52.492;13.434;2023-08-12T01:16:59;19.60;98.80
43338;DHT22;28933;52.492;13.434;2023-08-12T01:19:46;19.60;98.90
43338;DHT22;28933;52.492;13.434;2023-08-12T01:22:34;19.60;99.00
43338;DHT22;28933;52.492;13.434;2023-08-12T01:25:25;19.50;98.90
43338;DHT22;28933;52.492;13.434;2023-08-12T01:28:11;19.50;99.00
43338;DHT22;28933;52.492;13.434;2023-08-12T01:31:16;19.50;99.10
43338;DHT22;28933;52.492;13.434;2023-08-12T01:34:12;19.50;99.20
43338;DHT22;28933;52.492;13.434;2023-08-12T01:37:01;19.50;99.20
43338;DHT22;28933;52.492;13.434;2023-08-12T01:39:50;19.50;99.20
43338;DHT22;28933;52.492;13.434;2023-08-12T01:42:39;19.40;99.20
43338;DHT22;28933;52.492;13.434;2023-08-12T01:45:26;19.40;99.20
43338;DHT22;28933;52.492;13.434;2023-08-12T01:48:12;19.40;99.30
43338;DHT22;28933;52.492;13.434;2023-08-12T01:50:58;19.40;99.40
43338;DHT22;28933;52.492;13.434;2023-08-12T01:53:44;19.30;99.40
43338;DHT22;28933;52.492;13.434;2023-08-12T01:56:30;19.30;99.50
43338;DHT22;28933;52.492;13.434;2023-08-12T01:59:16;19.30;99.50
43338;DHT22;28933;52.492;13.434;2023-08-12T02:02:02;19.30;99.60
43338;DHT22;28933;52.492;13.434;2023-08-12T02:04:48;19.30;99.60
43338;DHT22;28933;52.492;13.434;2023-08-12T02:07:33;19.30;99.70
43338;DHT22;28933;52.492;13.434;2023-08-12T02:10:19;19.30;99.70
43338;DHT22;28933;52.492;13.434;2023-08-12T02:13:05;19.20;99.70
43338;DHT22;28933;52.492;13.434;2023-08-12T02:15:51;19.20;99.70
43338;DHT22;28933;52.492;13.434;2023-08-12T02:18:37;19.20;99.80
43338;DHT22;28933;52.492;13.434;2023-08-12T02:21:23;19.20;99.80
43338;DHT22;28933;52.492;13.434;2023-08-12T02:24:09;19.20;99.80
43338;DHT22;28933;52.492;13.434;2023-08-12T02:26:55;19.20;99.80
43338;DHT22;28933;52.492;13.434;2023-08-12T02:29:41;19.20;99.90
43338;DHT22;28933;52.492;13.434;2023-08-12T02:32:27;19.20;99.90
43338;DHT22;28933;52.492;13.434;2023-08-12T02:35:13;19.20;99.90
43338;DHT22;28933;52.492;13.434;2023-08-12T02:37:59;19.20;99.90
43338;DHT22;28933;52.492;13.434;2023-08-12T02:40:48;19.20;99.90
43338;DHT22;28933;52.492;13.434;2023-08-12T02:43:34;19.20;99.90
43338;DHT22;28933;52.492;13.434;2023-08-12T02:46:20;19.20;99.90
43338;DHT22;28933;52.492;13.434;2023-08-12T02:49:05;19.20;99.90
43338;DHT22;28933;52.492;13.434;2023-08-12T02:51:51;19.20;99.90
43338;DHT22;28933;52.492;13.434;2023-08-12T02:54:37;19.20;99.90
43338;DHT22;28933;52.492;13.434;2023-08-12T02:57:23;19.20;99.90
43338;DHT22;28933;52.492;13.434;2023-08-12T03:00:10;19.20;99.90
43338;DHT22;28933;52.492;13.434;2023-08-12T03:02:56;19.20;99.90
43338;DHT22;28933;52.492;13.434;2023-08-12T03:05:46;19.20;99.90
43338;DHT22;28933;52.492;13.434;2023-08-12T03:08:32;19.20;99.90
43338;DHT22;28933;52.492;13.434;2023-08-12T03:11:18;19.10;99.90
43338;DHT22;28933;52.492;13.434;2023-08-12T03:14:05;19.20;99.90
43338;DHT22;28933;52.492;13.434;2023-08-12T03:16:51;19.20;99.90
43338;DHT22;28933;52.492;13.434;2023-08-12T03:19:37;19.10;99.90
43338;DHT22;28933;52.492;13.434;2023-08-12T03:22:23;19.10;99.90
43338;DHT22;28933;52.492;13.434;2023-08-12T03:25:08;19.10;99.90
43338;DHT22;28933;52.492;13.434;2023-08-12T03:27:54;19.10;99.90
43338;DHT22;28933;52.492;13.434;2023-08-12T03:30:40;19.10;99.90
43338;DHT22;28933;52.492;13.434;2023-08-12T03:33:26;19.10;99.90
43338;DHT22;28933;52.492;13.434;2023-08-12T03:36:12;19.10;99.90
43338;DHT22;28933;52.492;13.434;2023-08-12T03:38:58;19.10;99.90
43338;DHT22;28933;52.492;13.434;2023-08-12T03:41:44;19.10;99.90
43338;DHT22;28933;52.492;13.434;2023-08-12T03:44:30;19.10;99.90
43338;DHT22;28933;52.492;13.434;2023-08-12T03:47:16;19.10;99.90
43338;DHT22;28933;52.492;13.434;2023-08-12T03:50:07;19.00;99.90
43338;DHT22;28933;52.492;13.434;2023-08-12T03:52:53;19.00;99.90
43338;DHT22;28933;52.492;13.434;2023-08-12T03:55:39;19.00;99.90
43338;DHT22;28933;52.492;13.434;2023-08-12T03:58:25;19.00;99.90
43338;DHT22;28933;52.492;13.434;2023-08-12T04:01:11;19.00;99.90
43338;DHT22;28933;52.492;13.434;2023-08-12T04:03:57;18.90;99.90
43338;DHT22;28933;52.492;13.434;2023-08-12T04:06:43;19.00;99.90
43338;DHT22;28933;52.492;13.434;2023-08-12T04:09:29;19.00;99.90
43338;DHT22;28933;52.492;13.434;2023-08-12T04:12:15;19.00;99.90
43338;DHT22;28933;52.492;13.434;2023-08-12T04:15:01;18.90;99.90
43338;DHT22;28933;52.492;13.434;2023-08-12T04:17:50;18.90;99.90
43338;DHT22;28933;52.492;13.434;2023-08-12T04:20:37;18.90;99.90
43338;DHT22;28933;52.492;13.434;2023-08-12T04:23:23;18.90;99.90
43338;DHT22;28933;52.492;13.434;2023-08-12T04:26:09;18.90;99.90
43338;DHT22;28933;52.492;13.434;2023-08-12T04:28:55;18.90;99.90
43338;DHT22;28933;52.492;13.434;2023-08-12T04:31:41;19.00;99.90
43338;DHT22;28933;52.492;13.434;2023-08-12T04:34:27;18.90;99.90
43338;DHT22;28933;52.492;13.434;2023-08-12T04:37:13;19.00;99.90
43338;DHT22;28933;52.492;13.434;2023-08-12T04:39:59;18.90;99.90
43338;DHT22;28933;52.492;13.434;2023-08-12T04:42:45;18.90;99.90
43338;DHT22;28933;52.492;13.434;2023-08-12T04:45:31;19.00;99.90
43338;DHT22;28933;52.492;13.434;2023-08-12T04:48:17;19.00;99.90
43338;DHT22;28933;52.492;13.434;2023-08-12T04:51:03;19.00;99.90
43338;DHT22;28933;52.492;13.434;2023-08-12T04:53:50;19.00;99.90
43338;DHT22;28933;52.492;13.434;2023-08-12T04:56:36;19.10;99.90
43338;DHT22;28933;52.492;13.434;2023-08-12T04:59:22;19.10;99.90
43338;DHT22;28933;52.492;13.434;2023-08-12T05:02:08;19.20;99.90
43338;DHT22;28933;52.492;13.434;2023-08-12T05:04:54;19.20;99.90
43338;DHT22;28933;52.492;13.434;2023-08-12T05:07:40;19.30;99.90
43338;DHT22;28933;52.492;13.434;2023-08-12T05:10:26;19.30;99.90
43338;DHT22;28933;52.492;13.434;2023-08-12T05:13:12;19.40;99.90
43338;DHT22;28933;52.492;13.434;2023-08-12T05:15:58;19.50;99.90
43338;DHT22;28933;52.492;13.434;2023-08-12T05:18:44;19.50;99.90
43338;DHT22;28933;52.492;13.434;2023-08-12T05:21:30;19.70;99.90
43338;DHT22;28933;52.492;13.434;2023-08-12T05:24:15;19.70;99.90
43338;DHT22;28933;52.492;13.434;2023-08-12T05:27:01;19.90;99.90
43338;DHT22;28933;52.492;13.434;2023-08-12T05:29:47;20.00;99.90
43338;DHT22;28933;52.492;13.434;2023-08-12T05:32:33;20.20;99.90
43338;DHT22;28933;52.492;13.434;2023-08-12T05:35:19;20.30;99.90
43338;DHT22;28933;52.492;13.434;2023-08-12T05:38:05;20.50;99.80
43338;DHT22;28933;52.492;13.434;2023-08-12T05:40:51;20.60;99.40
43338;DHT22;28933;52.492;13.434;2023-08-12T05:43:37;20.70;99.10
43338;DHT22;28933;52.492;13.434;2023-08-12T05:46:23;20.90;99.00
43338;DHT22;28933;52.492;13.434;2023-08-12T05:49:09;21.00;98.80
43338;DHT22;28933;52.492;13.434;2023-08-12T05:51:55;21.10;98.90
43338;DHT22;28933;52.492;13.434;2023-08-12T05:54:41;21.20;98.70
43338;DHT22;28933;52.492;13.434;2023-08-12T05:57:27;21.30;98.30
43338;DHT22;28933;52.492;13.434;2023-08-12T06:00:13;21.40;98.40
43338;DHT22;28933;52.492;13.434;2023-08-12T06:02:59;21.40;98.30
43338;DHT22;28933;52.492;13.434;2023-08-12T06:05:46;21.50;98.10
43338;DHT22;28933;52.492;13.434;2023-08-12T06:08:32;21.50;98.10
43338;DHT22;28933;52.492;13.434;2023-08-12T06:11:18;21.60;98.00
43338;DHT22;28933;52.492;13.434;2023-08-12T06:14:04;21.70;98.10
43338;DHT22;28933;52.492;13.434;2023-08-12T06:16:50;21.80;97.90
43338;DHT22;28933;52.492;13.434;2023-08-12T06:19:36;21.90;97.90
43338;DHT22;28933;52.492;13.434;2023-08-12T06:22:22;21.90;97.70
43338;DHT22;28933;52.492;13.434;2023-08-12T06:25:08;22.00;97.50
43338;DHT22;28933;52.492;13.434;2023-08-12T06:27:54;22.10;97.40
43338;DHT22;28933;52.492;13.434;2023-08-12T06:30:40;22.10;97.30
43338;DHT22;28933;52.492;13.434;2023-08-12T06:33:26;22.20;97.30
43338;DHT22;28933;52.492;13.434;2023-08-12T06:36:12;22.30;97.10
43338;DHT22;28933;52.492;13.434;2023-08-12T06:38:57;22.30;97.10
43338;DHT22;28933;52.492;13.434;2023-08-12T06:41:43;22.40;97.10
43338;DHT22;28933;52.492;13.434;2023-08-12T06:44:29;22.50;97.00
43338;DHT22;28933;52.492;13.434;2023-08-12T06:47:15;22.50;96.90
43338;DHT22;28933;52.492;13.434;2023-08-12T06:50:01;22.60;96.80
43338;DHT22;28933;52.492;13.434;2023-08-12T06:52:47;22.60;96.50
43338;DHT22;28933;52.492;13.434;2023-08-12T06:55:33;22.70;96.60
43338;DHT22;28933;52.492;13.434;2023-08-12T06:58:19;22.80;96.60
43338;DHT22;28933;52.492;13.434;2023-08-12T07:01:05;22.80;96.50
43338;DHT22;28933;52.492;13.434;2023-08-12T07:03:51;22.90;96.50
43338;DHT22;28933;52.492;13.434;2023-08-12T07:06:37;22.90;96.40
43338;DHT22;28933;52.492;13.434;2023-08-12T07:09:23;23.00;96.30
43338;DHT22;28933;52.492;13.434;2023-08-12T07:12:09;23.10;96.40
43338;DHT22;28933;52.492;13.434;2023-08-12T07:14:55;23.20;96.50
43338;DHT22;28933;52.492;13.434;2023-08-12T07:17:41;23.30;95.90
43338;DHT22;28933;52.492;13.434;2023-08-12T07:20:27;23.30;95.90
43338;DHT22;28933;52.492;13.434;2023-08-12T07:23:13;23.40;95.80
43338;DHT22;28933;52.492;13.434;2023-08-12T07:25:59;23.40;95.90
43338;DHT22;28933;52.492;13.434;2023-08-12T07:28:45;23.50;95.70
43338;DHT22;28933;52.492;13.434;2023-08-12T07:31:31;23.70;95.70
43338;DHT22;28933;52.492;13.434;2023-08-12T07:34:17;23.80;95.60
43338;DHT22;28933;52.492;13.434;2023-08-12T07:37:03;23.90;95.80
43338;DHT22;28933;52.492;13.434;2023-08-12T07:39:49;24.00;95.70
43338;DHT22;28933;52.492;13.434;2023-08-12T07:42:34;24.10;95.60
43338;DHT22;28933;52.492;13.434;2023-08-12T07:45:21;24.20;95.70
43338;DHT22;28933;52.492;13.434;2023-08-12T07:48:07;24.30;95.30
43338;DHT22;28933;52.492;13.434;2023-08-12T07:50:57;24.40;95.30
43338;DHT22;28933;52.492;13.434;2023-08-12T07:53:43;24.50;95.10
43338;DHT22;28933;52.492;13.434;2023-08-12T07:56:29;24.60;95.40
43338;DHT22;28933;52.492;13.434;2023-08-12T07:59:15;24.70;94.80
43338;DHT22;28933;52.492;13.434;2023-08-12T08:02:02;24.80;95.00
43338;DHT22;28933;52.492;13.434;2023-08-12T08:04:48;24.90;94.60
43338;DHT22;28933;52.492;13.434;2023-08-12T08:07:35;25.00;94.70
43338;DHT22;28933;52.492;13.434;2023-08-12T08:10:21;25.00;94.60
43338;DHT22;28933;52.492;13.434;2023-08-12T08:13:07;25.10;94.60
43338;DHT22;28933;52.492;13.434;2023-08-12T08:15:53;25.20;94.60
43338;DHT22;28933;52.492;13.434;2023-08-12T08:18:39;25.20;94.50
43338;DHT22;28933;52.492;13.434;2023-08-12T08:21:26;25.30;94.10
43338;DHT22;28933;52.492;13.434;2023-08-12T08:24:12;25.30;94.30
43338;DHT22;28933;52.492;13.434;2023-08-12T08:26:58;25.30;94.20
43338;DHT22;28933;52.492;13.434;2023-08-12T08:29:44;25.30;94.20
43338;DHT22;28933;52.492;13.434;2023-08-12T08:32:30;25.30;94.00
43338;DHT22;28933;52.492;13.434;2023-08-12T08:35:16;25.30;94.50
43338;DHT22;28933;52.492;13.434;2023-08-12T08:38:02;25.30;94.30
43338;DHT22;28933;52.492;13.434;2023-08-12T08:40:51;25.30;94.20
43338;DHT22;28933;52.492;13.434;2023-08-12T08:43:42;25.20;94.30
43338;DHT22;28933;52.492;13.434;2023-08-12T08:46:31;25.20;94.00
43338;DHT22;28933;52.492;13.434;2023-08-12T08:49:17;25.10;94.10
43338;DHT22;28933;52.492;13.434;2023-08-12T08:52:04;25.10;94.00
43338;DHT22;28933;52.492;13.434;2023-08-12T08:54:50;25.00;94.20
43338;DHT22;28933;52.492;13.434;2023-08-12T08:57:37;25.00;94.20
43338;DHT22;28933;52.492;13.434;2023-08-12T09:00:25;25.00;94.40
43338;DHT22;28933;52.492;13.434;2023-08-12T09:03:12;25.00;94.30
43338;DHT22;28933;52.492;13.434;2023-08-12T09:05:59;25.00;94.60
43338;DHT22;28933;52.492;13.434;2023-08-12T09:08:47;25.00;94.50
43338;DHT22;28933;52.492;13.434;2023-08-12T09:11:34;25.00;94.70
43338;DHT22;28933;52.492;13.434;2023-08-12T09:14:20;25.00;95.00
43338;DHT22;28933;52.492;13.434;2023-08-12T09:17:06;25.00;95.00
43338;DHT22;28933;52.492;13.434;2023-08-12T09:19:53;25.10;95.00
43338;DHT22;28933;52.492;13.434;2023-08-12T09:22:40;25.10;94.70
43338;DHT22;28933;52.492;13.434;2023-08-12T09:25:27;25.10;95.00
43338;DHT22;28933;52.492;13.434;2023-08-12T09:28:15;25.20;95.20
43338;DHT22;28933;52.492;13.434;2023-08-12T09:31:01;25.20;95.30
43338;DHT22;28933;52.492;13.434;2023-08-12T09:33:47;25.30;95.30
43338;DHT22;28933;52.492;13.434;2023-08-12T09:36:33;25.50;95.00
43338;DHT22;28933;52.492;13.434;2023-08-12T09:39:19;25.70;94.90
43338;DHT22;28933;52.492;13.434;2023-08-12T09:42:05;25.90;95.00
43338;DHT22;28933;52.492;13.434;2023-08-12T09:44:51;26.00;95.00
43338;DHT22;28933;52.492;13.434;2023-08-12T09:47:37;26.10;94.80
43338;DHT22;28933;52.492;13.434;2023-08-12T09:50:28;26.20;94.60
43338;DHT22;28933;52.492;13.434;2023-08-12T09:53:15;26.20;94.40
43338;DHT22;28933;52.492;13.434;2023-08-12T09:56:07;26.30;94.50
43338;DHT22;28933;52.492;13.434;2023-08-12T09:58:56;26.30;94.50
43338;DHT22;28933;52.492;13.434;2023-08-12T10:01:43;26.40;94.30
43338;DHT22;28933;52.492;13.434;2023-08-12T10:04:39;26.40;94.30
43338;DHT22;28933;52.492;13.434;2023-08-12T10:07:28;26.50;94.20
43338;DHT22;28933;52.492;13.434;2023-08-12T10:10:15;26.60;94.00
43338;DHT22;28933;52.492;13.434;2023-08-12T10:13:01;26.70;93.90
43338;DHT22;28933;52.492;13.434;2023-08-12T10:15:48;26.90;94.30
43338;DHT22;28933;52.492;13.434;2023-08-12T10:18:35;26.90;94.30
43338;DHT22;28933;52.492;13.434;2023-08-12T10:21:22;26.90;94.00
43338;DHT22;28933;52.492;13.434;2023-08-12T10:24:10;26.90;94.00
43338;DHT22;28933;52.492;13.434;2023-08-12T10:26:57;26.90;93.90
43338;DHT22;28933;52.492;13.434;2023-08-12T10:29:43;26.90;94.00
43338;DHT22;28933;52.492;13.434;2023-08-12T10:32:30;26.90;93.80
43338;DHT22;28933;52.492;13.434;2023-08-12T10:35:16;26.90;93.80
43338;DHT22;28933;52.492;13.434;2023-08-12T10:38:05;26.90;93.90
43338;DHT22;28933;52.492;13.434;2023-08-12T10:40:52;27.00;93.80
43338;DHT22;28933;52.492;13.434;2023-08-12T10:44:01;27.00;93.70
43338;DHT22;28933;52.492;13.434;2023-08-12T10:46:52;27.10;93.80
43338;DHT22;28933;52.492;13.434;2023-08-12T10:49:39;27.20;93.80
43338;DHT22;28933;52.492;13.434;2023-08-12T10:52:32;27.20;93.60
43338;DHT22;28933;52.492;13.434;2023-08-12T10:55:25;27.30;93.60
43338;DHT22;28933;52.492;13.434;2023-08-12T10:58:24;27.30;93.50
43338;DHT22;28933;52.492;13.434;2023-08-12T11:01:17;27.30;93.60
43338;DHT22;28933;52.492;13.434;2023-08-12T11:04:17;27.40;93.70
43338;DHT22;28933;52.492;13.434;2023-08-12T11:07:17;27.50;93.70
43338;DHT22;28933;52.492;13.434;2023-08-12T11:10:21;27.60;93.90
43338;DHT22;28933;52.492;13.434;2023-08-12T11:13:08;27.60;93.90
43338;DHT22;28933;52.492;13.434;2023-08-12T11:16:06;27.60;93.90
43338;DHT22;28933;52.492;13.434;2023-08-12T11:18:53;27.60;93.80
43338;DHT22;28933;52.492;13.434;2023-08-12T11:21:39;27.60;93.60
43338;DHT22;28933;52.492;13.434;2023-08-12T11:24:26;27.60;93.70
43338;DHT22;28933;52.492;13.434;2023-08-12T11:27:12;27.70;94.10
43338;DHT22;28933;52.492;13.434;2023-08-12T11:29:59;27.60;93.70
43338;DHT22;28933;52.492;13.434;2023-08-12T11:32:46;27.60;93.70
43338;DHT22;28933;52.492;13.434;2023-08-12T11:35:32;27.60;93.50
43338;DHT22;28933;52.492;13.434;2023-08-12T11:38:19;27.60;93.60
43338;DHT22;28933;52.492;13.434;2023-08-12T11:41:06;27.60;93.90
43338;DHT22;28933;52.492;13.434;2023-08-12T11:43:51;27.50;93.40
43338;DHT22;28933;52.492;13.434;2023-08-12T11:46:37;27.50;93.40
43338;DHT22;28933;52.492;13.434;2023-08-12T11:49:24;27.40;93.10
43338;DHT22;28933;52.492;13.434;2023-08-12T11:52:11;27.30;93.20
43338;DHT22;28933;52.492;13.434;2023-08-12T11:54:58;27.20;93.20
43338;DHT22;28933;52.492;13.434;2023-08-12T11:57:44;27.20;93.00
43338;DHT22;28933;52.492;13.434;2023-08-12T12:00:31;27.10;92.90
43338;DHT22;28933;52.492;13.434;2023-08-12T12:03:18;27.10;93.10
43338;DHT22;28933;52.492;13.434;2023-08-12T12:06:04;27.10;93.00
43338;DHT22;28933;52.492;13.434;2023-08-12T12:08:52;27.10;93.00
43338;DHT22;28933;52.492;13.434;2023-08-12T12:11:40;27.10;93.00
43338;DHT22;28933;52.492;13.434;2023-08-12T12:14:26;27.10;92.90
43338;DHT22;28933;52.492;13.434;2023-08-12T12:17:12;27.10;92.80
43338;DHT22;28933;52.492;13.434;2023-08-12T12:20:00;27.10;92.90
43338;DHT22;28933;52.492;13.434;2023-08-12T12:22:47;27.10;93.00
43338;DHT22;28933;52.492;13.434;2023-08-12T12:25:33;27.10;93.10
43338;DHT22;28933;52.492;13.434;2023-08-12T12:28:19;27.00;93.10
43338;DHT22;28933;52.492;13.434;2023-08-12T12:31:05;27.00;93.10
43338;DHT22;28933;52.492;13.434;2023-08-12T12:33:53;27.00;93.10
43338;DHT22;28933;52.492;13.434;2023-08-12T12:36:40;26.90;93.40
43338;DHT22;28933;52.492;13.434;2023-08-12T12:39:26;26.80;93.50
43338;DHT22;28933;52.492;13.434;2023-08-12T12:42:12;26.80;93.70
43338;DHT22;28933;52.492;13.434;2023-08-12T12:44:58;26.70;93.70
43338;DHT22;28933;52.492;13.434;2023-08-12T12:47:44;26.60;93.70
43338;DHT22;28933;52.492;13.434;2023-08-12T12:50:30;26.60;93.60
43338;DHT22;28933;52.492;13.434;2023-08-12T12:53:16;26.60;93.80
43338;DHT22;28933;52.492;13.434;2023-08-12T12:56:03;26.60;93.80
43338;DHT22;28933;52.492;13.434;2023-08-12T12:58:49;26.70;93.90
43338;DHT22;28933;52.492;13.434;2023-08-12T13:01:35;26.80;94.00
43338;DHT22;28933;52.492;13.434;2023-08-12T13:04:21;27.00;94.10
43338;DHT22;28933;52.492;13.434;2023-08-12T13:07:07;27.10;94.10
43338;DHT22;28933;52.492;13.434;2023-08-12T13:09:53;27.20;94.10
43338;DHT22;28933;52.492;13.434;2023-08-12T13:12:39;27.30;94.00
43338;DHT22;28933;52.492;13.434;2023-08-12T13:15:25;27.30;94.10
43338;DHT22;28933;52.492;13.434;2023-08-12T13:18:12;27.40;93.90
43338;DHT22;28933;52.492;13.434;2023-08-12T13:20:58;27.50;93.90
43338;DHT22;28933;52.492;13.434;2023-08-12T13:23:44;27.70;93.80
43338;DHT22;28933;52.492;13.434;2023-08-12T13:26:30;27.80;93.90
43338;DHT22;28933;52.492;13.434;2023-08-12T13:29:16;27.90;93.90
43338;DHT22;28933;52.492;13.434;2023-08-12T13:32:02;28.10;93.90
43338;DHT22;28933;52.492;13.434;2023-08-12T13:34:48;28.20;93.80
43338;DHT22;28933;52.492;13.434;2023-08-12T13:37:34;28.30;93.30
43338;DHT22;28933;52.492;13.434;2023-08-12T13:40:19;28.60;93.10
43338;DHT22;28933;52.492;13.434;2023-08-12T13:43:06;28.70;93.10
43338;DHT22;28933;52.492;13.434;2023-08-12T13:45:52;28.70;92.70
43338;DHT22;28933;52.492;13.434;2023-08-12T13:48:38;28.70;92.70
43338;DHT22;28933;52.492;13.434;2023-08-12T13:51:24;28.70;92.30
43338;DHT22;28933;52.492;13.434;2023-08-12T13:54:10;28.70;92.40
43338;DHT22;28933;52.492;13.434;2023-08-12T13:56:56;28.80;92.40
43338;DHT22;28933;52.492;13.434;2023-08-12T13:59:42;28.80;92.20
43338;DHT22;28933;52.492;13.434;2023-08-12T14:02:29;28.90;92.00
43338;DHT22;28933;52.492;13.434;2023-08-12T14:05:15;29.00;91.80
43338;DHT22;28933;52.492;13.434;2023-08-12T14:08:01;29.10;91.30
43338;DHT22;28933;52.492;13.434;2023-08-12T14:10:47;29.20;91.10
43338;DHT22;28933;52.492;13.434;2023-08-12T14:13:33;29.30;91.10
43338;DHT22;28933;52.492;13.434;2023-08-12T14:16:19;29.30;90.80
43338;DHT22;28933;52.492;13.434;2023-08-12T14:19:05;29.30;90.50
43338;DHT22;28933;52.492;13.434;2023-08-12T14:21:51;29.30;90.40
43338;DHT22;28933;52.492;13.434;2023-08-12T14:24:37;29.30;90.60
43338;DHT22;28933;52.492;13.434;2023-08-12T14:27:23;29.30;90.30
43338;DHT22;28933;52.492;13.434;2023-08-12T14:30:09;29.30;90.00
43338;DHT22;28933;52.492;13.434;2023-08-12T14:32:55;29.30;90.00
43338;DHT22;28933;52.492;13.434;2023-08-12T14:35:42;29.30;90.30
43338;DHT22;28933;52.492;13.434;2023-08-12T14:38:28;29.30;90.00
43338;DHT22;28933;52.492;13.434;2023-08-12T14:41:14;29.40;90.10
43338;DHT22;28933;52.492;13.434;2023-08-12T14:44:00;29.50;89.80
43338;DHT22;28933;52.492;13.434;2023-08-12T14:46:46;29.60;89.90
43338;DHT22;28933;52.492;13.434;2023-08-12T14:49:31;29.70;89.40
43338;DHT22;28933;52.492;13.434;2023-08-12T14:52:19;29.80;89.40
43338;DHT22;28933;52.492;13.434;2023-08-12T14:55:05;30.00;89.10
43338;DHT22;28933;52.492;13.434;2023-08-12T14:57:51;30.00;88.80
43338;DHT22;28933;52.492;13.434;2023-08-12T15:00:37;30.00;88.60
43338;DHT22;28933;52.492;13.434;2023-08-12T15:03:23;30.10;88.30
43338;DHT22;28933;52.492;13.434;2023-08-12T15:06:09;30.00;88.30
43338;DHT22;28933;52.492;13.434;2023-08-12T15:08:55;30.00;88.30
43338;DHT22;28933;52.492;13.434;2023-08-12T15:11:41;30.00;87.50
43338;DHT22;28933;52.492;13.434;2023-08-12T15:14:28;30.00;87.80
43338;DHT22;28933;52.492;13.434;2023-08-12T15:17:14;30.00;87.60
43338;DHT22;28933;52.492;13.434;2023-08-12T15:20:00;29.90;87.60
43338;DHT22;28933;52.492;13.434;2023-08-12T15:22:46;29.80;87.80
43338;DHT22;28933;52.492;13.434;2023-08-12T15:25:32;29.70;87.70
43338;DHT22;28933;52.492;13.434;2023-08-12T15:28:18;29.60;87.50
43338;DHT22;28933;52.492;13.434;2023-08-12T15:31:03;29.50;87.80
43338;DHT22;28933;52.492;13.434;2023-08-12T15:33:49;29.50;88.10
43338;DHT22;28933;52.492;13.434;2023-08-12T15:36:35;29.40;88.00
43338;DHT22;28933;52.492;13.434;2023-08-12T15:39:22;29.40;88.00
43338;DHT22;28933;52.492;13.434;2023-08-12T15:42:08;29.40;88.30
43338;DHT22;28933;52.492;13.434;2023-08-12T15:44:54;29.30;88.10
43338;DHT22;28933;52.492;13.434;2023-08-12T15:47:40;29.30;88.50
43338;DHT22;28933;52.492;13.434;2023-08-12T15:50:26;29.30;88.40
43338;DHT22;28933;52.492;13.434;2023-08-12T15:53:12;29.30;88.70
43338;DHT22;28933;52.492;13.434;2023-08-12T15:55:58;29.30;88.50
43338;DHT22;28933;52.492;13.434;2023-08-12T15:58:44;29.30;88.50
43338;DHT22;28933;52.492;13.434;2023-08-12T16:01:30;29.30;88.40
43338;DHT22;28933;52.492;13.434;2023-08-12T16:04:16;29.30;88.80
43338;DHT22;28933;52.492;13.434;2023-08-12T16:07:02;29.30;88.40
43338;DHT22;28933;52.492;13.434;2023-08-12T16:09:48;29.30;88.30
43338;DHT22;28933;52.492;13.434;2023-08-12T16:12:34;29.20;88.00
43338;DHT22;28933;52.492;13.434;2023-08-12T16:15:21;29.20;88.50
43338;DHT22;28933;52.492;13.434;2023-08-12T16:18:07;29.20;88.80
43338;DHT22;28933;52.492;13.434;2023-08-12T16:20:53;29.10;88.70
43338;DHT22;28933;52.492;13.434;2023-08-12T16:23:39;29.10;89.10
43338;DHT22;28933;52.492;13.434;2023-08-12T16:26:25;29.00;89.40
43338;DHT22;28933;52.492;13.434;2023-08-12T16:29:10;29.00;89.70
43338;DHT22;28933;52.492;13.434;2023-08-12T16:31:56;28.90;89.80
43338;DHT22;28933;52.492;13.434;2023-08-12T16:34:42;28.90;89.90
43338;DHT22;28933;52.492;13.434;2023-08-12T16:37:28;28.80;89.70
43338;DHT22;28933;52.492;13.434;2023-08-12T16:40:14;28.80;90.00
43338;DHT22;28933;52.492;13.434;2023-08-12T16:43:00;28.80;89.90
43338;DHT22;28933;52.492;13.434;2023-08-12T16:45:46;28.70;90.00
43338;DHT22;28933;52.492;13.434;2023-08-12T16:48:32;28.70;90.10
43338;DHT22;28933;52.492;13.434;2023-08-12T16:51:18;28.60;90.10
43338;DHT22;28933;52.492;13.434;2023-08-12T16:54:04;28.60;90.20
43338;DHT22;28933;52.492;13.434;2023-08-12T16:56:50;28.50;90.40
43338;DHT22;28933;52.492;13.434;2023-08-12T16:59:36;28.40;90.50
43338;DHT22;28933;52.492;13.434;2023-08-12T17:02:22;28.40;90.70
43338;DHT22;28933;52.492;13.434;2023-08-12T17:05:08;28.30;90.70
43338;DHT22;28933;52.492;13.434;2023-08-12T17:07:54;28.30;90.60
43338;DHT22;28933;52.492;13.434;2023-08-12T17:10:43;28.20;90.80
43338;DHT22;28933;52.492;13.434;2023-08-12T17:13:29;28.20;90.90
43338;DHT22;28933;52.492;13.434;2023-08-12T17:16:15;28.10;90.80
43338;DHT22;28933;52.492;13.434;2023-08-12T17:19:01;28.00;90.70